Time;durP1;ratioP1;P1;durP2;ratioP2;P2;SDS_P1;SDS_P2;PMS_P1;PMS_P2;Temp;Humidity;BMP_temperature;BMP_pressure;BME280_temperature;BME280_humidity;BME280_pressure;Samples;Min_cycle;Max_cycle;Signal;HPM_P1;HPM_P2
2022/07/17 00:01:49;;;;;;;4.40;1.40;;;;;;;;;;5135053;27;20118;-72
2022/07/17 00:04:15;;;;;;;3.08;1.20;;;;;;;;;;5116419;27;20023;-73
2022/07/17 00:06:40;;;;;;;5.25;1.20;;;;;;;;;;5133067;27;20473;-73
2022/07/17 00:09:06;;;;;;;7.03;1.70;;;;;;;;;;5134936;27;20050;-73
2022/07/17 00:11:31;;;;;;;1.85;1.05;;;;;;;;;;5133619;27;20042;-73
2022/07/17 00:13:57;;;;;;;3.60;1.30;;;;;;;;;;5134784;27;20031;-73
2022/07/17 00:16:22;;;;;;;5.07;1.30;;;;;;;;;;5116375;27;20520;-73
2022/07/17 00:18:48;;;;;;;3.10;1.20;;;;;;;;;;5133746;27;20038;-72
2022/07/17 00:21:15;;;;;;;3.08;1.10;;;;;;;;;;5133527;27;20035;-73
2022/07/17 00:23:40;;;;;;;2.05;1.35;;;;;;;;;;5116347;27;20497;-73
2022/07/17 00:26:06;;;;;;;6.43;1.23;;;;;;;;;;5116319;27;20520;-73
2022/07/17 00:28:32;;;;;;;3.72;1.50;;;;;;;;;;5135055;27;20358;-73
2022/07/17 00:30:57;;;;;;;1.67;0.95;;;;;;;;;;5115864;27;20503;-72
2022/07/17 00:33:23;;;;;;;4.68;1.42;;;;;;;;;;5134816;27;20031;-73
2022/07/17 00:35:48;;;;;;;3.20;1.20;;;;;;;;;;5112283;28;20042;-73
2022/07/17 00:38:14;;;;;;;5.63;1.20;;;;;;;;;;5114329;28;20039;-73
2022/07/17 00:40:40;;;;;;;4.00;1.20;;;;;;;;;;5113893;28;20462;-73
2022/07/17 00:43:06;;;;;;;4.95;1.35;;;;;;;;;;5114085;28;20085;-73
2022/07/17 00:45:31;;;;;;;6.35;1.63;;;;;;;;;;5113799;28;20084;-72
2022/07/17 00:47:59;;;;;;;3.92;1.35;;;;;;;;;;5113682;28;20129;-72
2022/07/17 00:50:34;;;;;;;2.22;1.10;;;;;;;;;;5113833;28;20404;-72
2022/07/17 00:53:00;;;;;;;2.75;1.02;;;;;;;;;;5111769;28;20042;-73
2022/07/17 00:55:26;;;;;;;2.47;1.05;;;;;;;;;;5113405;28;20042;-73
2022/07/17 00:57:54;;;;;;;3.72;1.10;;;;;;;;;;5095270;28;20035;-73
2022/07/17 01:00:20;;;;;;;4.85;1.00;;;;;;;;;;5113887;28;20039;-73
2022/07/17 01:02:50;;;;;;;6.15;1.48;;;;;;;;;;5113695;28;20088;-73
2022/07/17 01:05:16;;;;;;;2.13;1.00;;;;;;;;;;5121575;28;20031;-73
2022/07/17 01:07:42;;;;;;;6.05;1.30;;;;;;;;;;5132860;27;20119;-73
2022/07/17 01:10:09;;;;;;;5.60;1.33;;;;;;;;;;5115090;28;20063;-72
2022/07/17 01:12:34;;;;;;;2.65;1.30;;;;;;;;;;5134143;27;20050;-72
2022/07/17 01:15:00;;;;;;;4.35;0.98;;;;;;;;;;5115667;28;20561;-72
2022/07/17 01:17:26;;;;;;;6.22;1.20;;;;;;;;;;5134200;28;20027;-73
2022/07/17 01:19:52;;;;;;;5.82;1.33;;;;;;;;;;5134267;27;20412;-73
2022/07/17 01:22:18;;;;;;;3.60;1.25;;;;;;;;;;5132723;27;20162;-73
2022/07/17 01:24:43;;;;;;;4.72;1.33;;;;;;;;;;5133853;27;20042;-73
2022/07/17 01:27:09;;;;;;;2.90;1.95;;;;;;;;;;5115593;28;20080;-73
2022/07/17 01:29:38;;;;;;;8.00;1.17;;;;;;;;;;5132764;27;20039;-72
2022/07/17 01:32:04;;;;;;;3.10;1.25;;;;;;;;;;5134140;27;20038;-73
2022/07/17 01:34:30;;;;;;;2.03;1.13;;;;;;;;;;5133868;27;20457;-73
2022/07/17 01:36:55;;;;;;;3.38;1.30;;;;;;;;;;5133893;27;20035;-73
2022/07/17 01:39:52;;;;;;;5.72;1.63;;;;;;;;;;5133432;27;20034;-74
2022/07/17 01:42:06;;;;;;;4.68;1.33;;;;;;;;;;5132529;27;20038;-73
2022/07/17 01:44:32;;;;;;;3.00;1.33;;;;;;;;;;5133694;27;20373;-73
2022/07/17 01:46:57;;;;;;;5.57;1.52;;;;;;;;;;5115387;28;20047;-73
2022/07/17 01:49:23;;;;;;;3.45;1.10;;;;;;;;;;5115602;27;20535;-73
2022/07/17 01:51:49;;;;;;;3.30;1.33;;;;;;;;;;5115428;28;20035;-73
2022/07/17 01:54:15;;;;;;;3.42;1.10;;;;;;;;;;5132038;28;20053;-72
2022/07/17 01:56:40;;;;;;;1.73;1.27;;;;;;;;;;5133304;27;20102;-73
2022/07/17 01:59:06;;;;;;;3.67;1.85;;;;;;;;;;5132608;28;20050;-73
2022/07/17 02:01:31;;;;;;;2.42;1.10;;;;;;;;;;5134086;27;20027;-73
2022/07/17 02:03:57;;;;;;;7.95;1.65;;;;;;;;;;5135553;27;20042;-73
2022/07/17 02:06:22;;;;;;;2.85;1.10;;;;;;;;;;5136267;27;20508;-73
2022/07/17 02:08:50;;;;;;;5.68;1.17;;;;;;;;;;5119004;27;20043;-73
2022/07/17 02:11:18;;;;;;;5.40;1.10;;;;;;;;;;5135803;27;20031;-72
2022/07/17 02:13:44;;;;;;;6.82;1.10;;;;;;;;;;5135722;27;20461;-73
2022/07/17 02:16:09;;;;;;;3.88;1.30;;;;;;;;;;5137482;27;20080;-73
2022/07/17 02:18:35;;;;;;;4.50;1.33;;;;;;;;;;5135881;27;20602;-73
2022/07/17 02:21:01;;;;;;;1.52;0.95;;;;;;;;;;5137084;27;20491;-73
2022/07/17 02:23:28;;;;;;;3.03;1.23;;;;;;;;;;5135664;27;20065;-73
2022/07/17 02:25:53;;;;;;;2.80;1.17;;;;;;;;;;5136732;27;20039;-73
2022/07/17 02:28:19;;;;;;;5.00;1.35;;;;;;;;;;5137445;27;20042;-73
2022/07/17 02:30:46;;;;;;;2.55;1.25;;;;;;;;;;5135413;27;20031;-73
2022/07/17 02:33:11;;;;;;;2.58;1.27;;;;;;;;;;5136890;27;20046;-73
2022/07/17 02:35:36;;;;;;;5.10;1.27;;;;;;;;;;5118067;27;20027;-73
2022/07/17 02:38:02;;;;;;;8.10;1.73;;;;;;;;;;5136886;27;20096;-73
2022/07/17 02:40:28;;;;;;;4.13;1.27;;;;;;;;;;5135334;27;20055;-73
2022/07/17 02:42:53;;;;;;;6.25;1.42;;;;;;;;;;5117341;27;20043;-73
2022/07/17 02:45:24;;;;;;;2.88;1.20;;;;;;;;;;5135652;27;20056;-73
2022/07/17 02:47:50;;;;;;;2.00;1.27;;;;;;;;;;5135383;27;20035;-73
2022/07/17 02:50:16;;;;;;;5.22;1.27;;;;;;;;;;5118433;27;20034;-73
2022/07/17 02:52:43;;;;;;;2.58;1.33;;;;;;;;;;5136607;27;20030;-73
2022/07/17 02:55:10;;;;;;;1.58;1.05;;;;;;;;;;5118122;27;20035;-73
2022/07/17 02:57:37;;;;;;;4.05;1.58;;;;;;;;;;5136067;27;20078;-73
2022/07/17 03:00:09;;;;;;;7.50;1.48;;;;;;;;;;5118103;27;20095;-73
2022/07/17 03:02:34;;;;;;;2.33;1.00;;;;;;;;;;5135586;27;20035;-73
2022/07/17 03:05:00;;;;;;;4.28;1.45;;;;;;;;;;5136370;27;20152;-73
2022/07/17 03:07:25;;;;;;;4.28;1.10;;;;;;;;;;5136134;27;20049;-72
2022/07/17 03:09:51;;;;;;;1.75;0.90;;;;;;;;;;5135264;27;20043;-73
2022/07/17 03:12:16;;;;;;;2.38;1.10;;;;;;;;;;5135804;27;20031;-73
2022/07/17 03:14:42;;;;;;;3.17;1.30;;;;;;;;;;5135233;27;20414;-73
2022/07/17 03:17:07;;;;;;;3.80;1.17;;;;;;;;;;5136033;27;20035;-73
2022/07/17 03:19:33;;;;;;;2.28;0.98;;;;;;;;;;5117732;27;20076;-73
2022/07/17 03:21:58;;;;;;;2.45;1.10;;;;;;;;;;5135819;27;20415;-72
2022/07/17 03:24:24;;;;;;;3.30;1.17;;;;;;;;;;5134801;27;20031;-73
2022/07/17 03:26:49;;;;;;;9.48;1.27;;;;;;;;;;5117030;27;20059;-73
2022/07/17 03:29:18;;;;;;;6.35;1.30;;;;;;;;;;5135986;27;20038;-73
2022/07/17 03:31:44;;;;;;;4.70;1.20;;;;;;;;;;5135927;27;20100;-73
2022/07/17 03:34:10;;;;;;;3.83;1.38;;;;;;;;;;5134465;27;20038;-73
2022/07/17 03:36:36;;;;;;;2.63;1.13;;;;;;;;;;5134422;27;20038;-72
2022/07/17 03:39:01;;;;;;;4.72;1.35;;;;;;;;;;5117362;27;20027;-73
2022/07/17 03:41:27;;;;;;;3.45;1.23;;;;;;;;;;5116513;27;20087;-73
2022/07/17 03:43:53;;;;;;;2.58;1.38;;;;;;;;;;5134383;27;20038;-73
2022/07/17 03:46:20;;;;;;;6.13;1.33;;;;;;;;;;5117327;27;20031;-73
2022/07/17 03:48:45;;;;;;;3.45;1.02;;;;;;;;;;5135345;27;20120;-73
2022/07/17 03:51:10;;;;;;;1.95;1.25;;;;;;;;;;5135339;27;20110;-73
2022/07/17 03:53:36;;;;;;;3.47;1.35;;;;;;;;;;5133957;27;20035;-73
2022/07/17 03:56:02;;;;;;;4.93;1.55;;;;;;;;;;5135057;27;20122;-73
2022/07/17 03:58:27;;;;;;;4.75;1.30;;;;;;;;;;5135013;27;20461;-73
2022/07/17 04:00:53;;;;;;;4.40;1.10;;;;;;;;;;5135120;27;20385;-73
2022/07/17 04:03:20;;;;;;;4.20;1.40;;;;;;;;;;5116830;27;20125;-72
2022/07/17 04:05:45;;;;;;;4.00;1.25;;;;;;;;;;5116571;27;20050;-72
2022/07/17 04:08:12;;;;;;;2.15;1.13;;;;;;;;;;5135103;27;20041;-72
2022/07/17 04:10:38;;;;;;;7.40;1.40;;;;;;;;;;5133251;27;20499;-72
2022/07/17 04:13:04;;;;;;;2.33;1.02;;;;;;;;;;5134865;27;20031;-73
2022/07/17 04:18:13;;;;;;;3.08;1.33;;;;;;;;;;5134848;27;20045;-72
2022/07/17 04:20:38;;;;;;;3.30;1.30;;;;;;;;;;5133776;27;20039;-73
2022/07/17 04:23:05;;;;;;;4.40;1.27;;;;;;;;;;5134872;27;20358;-73
2022/07/17 04:25:31;;;;;;;6.90;1.23;;;;;;;;;;5115863;27;20469;-73
2022/07/17 04:27:56;;;;;;;1.98;1.10;;;;;;;;;;5133004;27;20156;-73
2022/07/17 04:30:22;;;;;;;3.03;1.30;;;;;;;;;;5116238;27;20038;-74
2022/07/17 04:32:47;;;;;;;3.20;1.10;;;;;;;;;;5133852;27;20027;-74
2022/07/17 04:35:13;;;;;;;2.63;1.20;;;;;;;;;;5131463;27;20031;-74
2022/07/17 04:37:38;;;;;;;5.93;1.60;;;;;;;;;;5114478;27;20031;-74
2022/07/17 04:40:04;;;;;;;2.80;1.13;;;;;;;;;;5132695;27;20062;-74
2022/07/17 04:42:29;;;;;;;5.57;1.27;;;;;;;;;;5133131;27;20039;-74
2022/07/17 04:44:55;;;;;;;2.78;1.40;;;;;;;;;;5132438;27;20404;-74
2022/07/17 04:47:20;;;;;;;4.18;1.38;;;;;;;;;;5132790;27;20031;-74
2022/07/17 04:49:46;;;;;;;3.40;1.50;;;;;;;;;;5132327;27;20067;-74
2022/07/17 04:52:11;;;;;;;5.28;1.95;;;;;;;;;;5115900;27;20031;-74
2022/07/17 04:54:36;;;;;;;10.40;1.95;;;;;;;;;;5114818;27;20558;-74
2022/07/17 04:57:02;;;;;;;4.35;1.63;;;;;;;;;;5115012;27;20031;-74
2022/07/17 04:59:28;;;;;;;5.65;1.60;;;;;;;;;;5115949;28;20431;-74
2022/07/17 05:01:53;;;;;;;7.03;2.28;;;;;;;;;;5132896;27;20035;-74
2022/07/17 05:04:18;;;;;;;5.63;2.10;;;;;;;;;;5132879;27;20106;-74
2022/07/17 05:06:44;;;;;;;7.55;2.10;;;;;;;;;;5153361;27;20091;-74
2022/07/17 05:09:09;;;;;;;4.40;1.75;;;;;;;;;;5153839;27;20027;-74
2022/07/17 05:11:36;;;;;;;4.88;1.95;;;;;;;;;;5154656;27;20383;-74
2022/07/17 05:14:02;;;;;;;11.45;3.28;;;;;;;;;;5152394;27;20030;-74
2022/07/17 05:16:28;;;;;;;6.00;2.90;;;;;;;;;;5152866;27;20050;-74
2022/07/17 05:18:53;;;;;;;9.88;2.78;;;;;;;;;;5151799;27;20156;-74
2022/07/17 05:21:19;;;;;;;10.50;2.35;;;;;;;;;;5154855;27;20117;-74
2022/07/17 05:23:44;;;;;;;4.13;2.08;;;;;;;;;;5135111;27;20126;-74
2022/07/17 05:26:10;;;;;;;5.53;1.95;;;;;;;;;;5152904;27;20029;-74
2022/07/17 05:28:35;;;;;;;9.23;2.40;;;;;;;;;;5154988;27;20185;-74
2022/07/17 05:31:00;;;;;;;9.88;2.15;;;;;;;;;;5135508;27;20043;-74
2022/07/17 05:33:26;;;;;;;8.57;2.20;;;;;;;;;;5154103;27;20368;-74
2022/07/17 05:35:51;;;;;;;9.38;2.63;;;;;;;;;;5153169;27;20057;-74
2022/07/17 05:38:17;;;;;;;5.18;2.00;;;;;;;;;;5151359;27;20070;-75
2022/07/17 05:40:45;;;;;;;7.80;2.47;;;;;;;;;;5156080;27;20046;-74
2022/07/17 05:43:10;;;;;;;6.07;2.13;;;;;;;;;;5158302;27;20121;-74
2022/07/17 05:45:36;;;;;;;5.75;2.45;;;;;;;;;;5148311;27;20063;-73
2022/07/17 05:48:01;;;;;;;7.30;2.97;;;;;;;;;;5134053;27;20039;-74
2022/07/17 05:50:27;;;;;;;7.20;2.97;;;;;;;;;;5135385;27;20060;-74
2022/07/17 05:52:54;;;;;;;7.70;3.15;;;;;;;;;;5136917;27;20038;-74
2022/07/17 05:55:20;;;;;;;7.05;3.67;;;;;;;;;;5135942;27;20039;-74
2022/07/17 05:57:45;;;;;;;7.40;3.15;;;;;;;;;;5136398;27;20027;-74
2022/07/17 06:00:11;;;;;;;8.25;3.50;;;;;;;;;;5135710;27;20038;-74
2022/07/17 06:02:40;;;;;;;8.50;3.85;;;;;;;;;;5119766;27;20061;-74
2022/07/17 06:05:06;;;;;;;12.70;3.83;;;;;;;;;;5116202;27;20031;-74
2022/07/17 06:07:32;;;;;;;8.40;4.10;;;;;;;;;;5135949;27;20058;-74
2022/07/17 06:09:57;;;;;;;7.95;3.35;;;;;;;;;;5137148;27;20027;-74
2022/07/17 06:12:22;;;;;;;12.68;4.32;;;;;;;;;;5136520;27;20480;-73
2022/07/17 06:14:48;;;;;;;12.07;5.10;;;;;;;;;;5136463;27;20027;-74
2022/07/17 06:17:13;;;;;;;11.38;4.65;;;;;;;;;;5118656;27;20043;-74
2022/07/17 06:19:39;;;;;;;11.02;4.68;;;;;;;;;;5136333;27;20499;-74
2022/07/17 06:22:04;;;;;;;10.60;4.15;;;;;;;;;;5118701;27;20039;-74
2022/07/17 06:24:30;;;;;;;8.35;4.15;;;;;;;;;;5135275;27;20034;-74
2022/07/17 06:26:55;;;;;;;14.57;3.85;;;;;;;;;;5134782;27;20362;-74
2022/07/17 06:29:20;;;;;;;15.73;4.05;;;;;;;;;;5136032;27;20042;-74
2022/07/17 06:31:46;;;;;;;4.55;2.30;;;;;;;;;;5136224;27;20023;-74
2022/07/17 06:34:11;;;;;;;9.63;2.88;;;;;;;;;;5135173;27;20031;-74
2022/07/17 06:36:36;;;;;;;10.88;2.97;;;;;;;;;;5135485;27;20049;-76
2022/07/17 06:39:03;;;;;;;12.15;3.03;;;;;;;;;;5134597;27;20386;-76
2022/07/17 06:41:28;;;;;;;8.07;2.45;;;;;;;;;;5134939;27;20097;-76
2022/07/17 06:43:54;;;;;;;8.02;2.55;;;;;;;;;;5135395;27;20080;-75
2022/07/17 06:46:19;;;;;;;6.82;2.92;;;;;;;;;;5134434;27;20046;-74
2022/07/17 06:48:45;;;;;;;5.18;2.10;;;;;;;;;;5133397;27;20068;-75
2022/07/17 06:51:10;;;;;;;6.97;2.45;;;;;;;;;;5135419;27;20054;-77
2022/07/17 06:53:36;;;;;;;8.40;3.40;;;;;;;;;;5137410;27;20031;-77
2022/07/17 06:56:01;;;;;;;6.85;2.00;;;;;;;;;;5120973;27;20042;-78
2022/07/17 06:58:27;;;;;;;4.40;2.00;;;;;;;;;;5119294;27;20031;-77
2022/07/17 07:00:52;;;;;;;9.32;2.72;;;;;;;;;;5118363;27;20477;-77
2022/07/17 07:03:18;;;;;;;5.20;2.03;;;;;;;;;;5119253;27;20034;-77
2022/07/17 07:05:43;;;;;;;7.72;1.90;;;;;;;;;;5146111;27;20038;-76
2022/07/17 07:08:09;;;;;;;7.97;2.17;;;;;;;;;;5139018;27;20041;-76
2022/07/17 07:10:34;;;;;;;6.10;1.85;;;;;;;;;;5158121;27;20030;-77
2022/07/17 07:13:00;;;;;;;4.50;2.00;;;;;;;;;;5138697;27;20035;-76
2022/07/17 07:15:25;;;;;;;6.20;2.05;;;;;;;;;;5156545;27;20038;-77
2022/07/17 07:17:51;;;;;;;5.82;1.63;;;;;;;;;;5157145;27;20031;-77
2022/07/17 07:20:16;;;;;;;11.70;1.90;;;;;;;;;;5140478;27;20076;-78
2022/07/17 07:22:42;;;;;;;6.60;1.80;;;;;;;;;;5137740;27;20031;-77
2022/07/17 07:25:08;;;;;;;9.57;1.65;;;;;;;;;;5122626;27;20038;-77
2022/07/17 07:27:33;;;;;;;7.07;1.70;;;;;;;;;;5137199;27;20115;-77
2022/07/17 07:29:59;;;;;;;8.82;1.95;;;;;;;;;;5119091;27;20084;-76
2022/07/17 07:32:24;;;;;;;9.23;1.90;;;;;;;;;;5138305;27;20035;-79
2022/07/17 07:34:50;;;;;;;4.47;1.30;;;;;;;;;;5135125;27;20091;-78
2022/07/17 07:37:15;;;;;;;9.27;2.20;;;;;;;;;;5134378;27;20031;-77
2022/07/17 07:39:41;;;;;;;6.00;1.42;;;;;;;;;;5117333;27;20051;-77
2022/07/17 07:42:07;;;;;;;9.60;2.47;;;;;;;;;;5133013;27;20070;-76
2022/07/17 07:44:32;;;;;;;7.85;1.75;;;;;;;;;;5135430;27;20031;-77
2022/07/17 07:46:58;;;;;;;9.20;1.73;;;;;;;;;;5134200;27;20114;-78
2022/07/17 07:49:24;;;;;;;8.95;1.92;;;;;;;;;;5117323;27;20038;-76
2022/07/17 07:51:50;;;;;;;4.60;1.67;;;;;;;;;;5120527;27;20035;-80
2022/07/17 07:54:15;;;;;;;3.70;1.30;;;;;;;;;;5139199;27;20038;-79
2022/07/17 07:56:40;;;;;;;5.32;1.65;;;;;;;;;;5139858;27;20031;-79
2022/07/17 07:59:06;;;;;;;4.30;1.80;;;;;;;;;;5140774;27;20043;-79
2022/07/17 08:01:31;;;;;;;7.95;1.70;;;;;;;;;;5121649;27;20035;-79
2022/07/17 08:03:57;;;;;;;6.20;1.65;;;;;;;;;;5138295;27;20111;-76
2022/07/17 08:06:22;;;;;;;7.53;1.80;;;;;;;;;;5116521;27;20031;-76
2022/07/17 08:08:47;;;;;;;6.10;1.52;;;;;;;;;;5134573;27;20031;-76
2022/07/17 08:11:14;;;;;;;6.07;1.85;;;;;;;;;;5134802;27;20035;-75
2022/07/17 08:13:40;;;;;;;5.65;1.27;;;;;;;;;;5116095;27;20526;-76
2022/07/17 08:16:06;;;;;;;7.30;1.67;;;;;;;;;;5115149;27;20496;-76
2022/07/17 08:18:32;;;;;;;7.05;1.80;;;;;;;;;;5133484;27;20034;-76
2022/07/17 08:20:58;;;;;;;5.22;1.40;;;;;;;;;;5134350;27;20397;-76
2022/07/17 08:23:23;;;;;;;5.93;1.55;;;;;;;;;;5133526;27;20054;-76
2022/07/17 08:25:49;;;;;;;6.90;1.65;;;;;;;;;;5115199;27;20358;-76
2022/07/17 08:28:15;;;;;;;5.85;1.50;;;;;;;;;;5133699;27;20079;-76
2022/07/17 08:30:41;;;;;;;11.23;1.80;;;;;;;;;;5116322;27;20042;-76
2022/07/17 08:33:09;;;;;;;7.50;1.40;;;;;;;;;;5115878;27;20537;-76
2022/07/17 08:35:35;;;;;;;3.75;1.55;;;;;;;;;;5138231;27;20039;-81
2022/07/17 08:38:01;;;;;;;4.30;1.25;;;;;;;;;;5143160;27;20039;-81
2022/07/17 08:40:33;;;;;;;2.60;1.00;;;;;;;;;;5142476;27;20043;-81
2022/07/17 08:43:02;;;;;;;2.78;1.20;;;;;;;;;;5104721;27;20183;-79
2022/07/17 08:45:27;;;;;;;3.20;1.20;;;;;;;;;;5119302;28;20470;-82
2022/07/17 08:47:55;;;;;;;3.80;1.13;;;;;;;;;;5101749;28;20058;-86
2022/07/17 08:50:24;;;;;;;3.45;1.30;;;;;;;;;;5113994;28;20104;-85
2022/07/17 08:52:50;;;;;;;5.30;1.73;;;;;;;;;;5114886;28;20038;-86
2022/07/17 08:55:18;;;;;;;3.42;1.25;;;;;;;;;;5114582;28;20115;-86
2022/07/17 08:57:45;;;;;;;5.25;1.30;;;;;;;;;;5114405;28;20035;-86
2022/07/17 09:00:13;;;;;;;6.43;1.63;;;;;;;;;;5096673;28;20061;-86
2022/07/17 09:02:39;;;;;;;5.25;1.65;;;;;;;;;;5097382;28;20032;-86
2022/07/17 09:05:06;;;;;;;5.22;1.40;;;;;;;;;;5097131;28;20087;-85
2022/07/17 09:07:33;;;;;;;5.13;1.25;;;;;;;;;;5114784;28;20385;-85
2022/07/17 09:10:01;;;;;;;7.30;1.63;;;;;;;;;;5099699;28;20076;-83
2022/07/17 09:12:28;;;;;;;2.60;1.15;;;;;;;;;;5103414;27;20027;-85
2022/07/17 09:14:55;;;;;;;5.70;1.38;;;;;;;;;;5137346;28;20118;-85
2022/07/17 09:17:20;;;;;;;5.57;1.20;;;;;;;;;;5122767;28;20491;-81
2022/07/17 09:19:46;;;;;;;4.32;1.50;;;;;;;;;;5137573;28;20039;-83
2022/07/17 09:22:18;;;;;;;4.63;1.27;;;;;;;;;;5119925;28;20496;-83
2022/07/17 09:24:52;;;;;;;6.28;1.30;;;;;;;;;;5137755;28;20035;-83
2022/07/17 09:27:23;;;;;;;4.47;1.30;;;;;;;;;;5138746;27;20030;-83
2022/07/17 09:30:09;;;;;;;3.33;1.25;;;;;;;;;;5138305;28;20035;-83
2022/07/17 09:32:37;;;;;;;5.32;1.70;;;;;;;;;;5138059;27;20030;-83
2022/07/17 09:35:05;;;;;;;3.30;1.27;;;;;;;;;;5120115;28;20023;-83
2022/07/17 09:37:32;;;;;;;4.88;1.17;;;;;;;;;;5121115;28;20027;-83
2022/07/17 09:39:58;;;;;;;4.13;1.23;;;;;;;;;;5119909;28;20066;-83
2022/07/17 09:42:32;;;;;;;5.63;1.42;;;;;;;;;;5137448;27;20039;-83
2022/07/17 09:45:08;;;;;;;3.55;1.20;;;;;;;;;;5120312;28;20043;-80
2022/07/17 09:47:37;;;;;;;3.38;1.05;;;;;;;;;;5137635;28;20060;-80
2022/07/17 09:50:05;;;;;;;7.35;1.92;;;;;;;;;;5121005;28;20035;-81
2022/07/17 09:52:37;;;;;;;3.47;1.40;;;;;;;;;;5120730;28;20035;-81
2022/07/17 09:55:04;;;;;;;11.38;1.88;;;;;;;;;;5120234;28;20023;-80
2022/07/17 09:57:33;;;;;;;6.15;1.63;;;;;;;;;;5137898;27;20487;-80
2022/07/17 10:00:07;;;;;;;6.57;1.63;;;;;;;;;;5119933;28;20035;-80
2022/07/17 10:02:45;;;;;;;7.30;1.55;;;;;;;;;;5138549;28;20035;-80
2022/07/17 10:05:12;;;;;;;7.40;1.50;;;;;;;;;;5119898;28;20031;-80
2022/07/17 10:07:40;;;;;;;9.77;2.00;;;;;;;;;;5137282;27;20447;-80
2022/07/17 10:10:08;;;;;;;9.40;1.55;;;;;;;;;;5120672;28;20035;-80
2022/07/17 10:12:36;;;;;;;4.68;1.70;;;;;;;;;;5120445;28;20129;-81
2022/07/17 10:15:02;;;;;;;3.67;1.10;;;;;;;;;;5120251;28;20100;-81
2022/07/17 10:17:28;;;;;;;6.88;1.20;;;;;;;;;;5120845;28;20034;-81
2022/07/17 10:19:54;;;;;;;4.82;1.48;;;;;;;;;;5137654;28;20031;-81
2022/07/17 10:22:21;;;;;;;10.65;1.60;;;;;;;;;;5138738;28;20160;-80
2022/07/17 10:24:52;;;;;;;4.55;1.60;;;;;;;;;;5141154;27;20035;-80
2022/07/17 10:27:24;;;;;;;3.60;1.40;;;;;;;;;;5124936;27;20402;-80
2022/07/17 10:30:00;;;;;;;4.38;1.20;;;;;;;;;;5125211;27;20098;-80
2022/07/17 10:32:26;;;;;;;1.95;0.90;;;;;;;;;;5124149;27;20038;-81
2022/07/17 10:35:05;;;;;;;3.88;1.42;;;;;;;;;;5137680;27;20102;-80
2022/07/17 10:37:36;;;;;;;6.03;1.42;;;;;;;;;;5121594;28;20470;-80
2022/07/17 10:40:06;;;;;;;5.68;1.73;;;;;;;;;;5121749;28;20065;-80
2022/07/17 10:42:58;;;;;;;6.63;1.20;;;;;;;;;;5121493;28;20107;-81
2022/07/17 10:45:39;;;;;;;3.88;1.50;;;;;;;;;;5122099;28;20036;-80
2022/07/17 10:48:06;;;;;;;4.90;1.17;;;;;;;;;;5105116;28;20039;-80
2022/07/17 10:50:35;;;;;;;14.20;1.77;;;;;;;;;;5122000;28;20096;-80
2022/07/17 10:53:17;;;;;;;4.60;1.52;;;;;;;;;;5122127;27;20035;-80
2022/07/17 10:55:52;;;;;;;2.75;1.10;;;;;;;;;;5121883;28;20035;-80
2022/07/17 10:58:28;;;;;;;4.25;1.33;;;;;;;;;;5105246;28;20057;-80
2022/07/17 11:01:09;;;;;;;5.15;1.35;;;;;;;;;;5139002;27;20058;-83
2022/07/17 11:03:37;;;;;;;1.45;0.70;;;;;;;;;;5121379;28;20031;-82
2022/07/17 11:06:11;;;;;;;4.97;1.40;;;;;;;;;;5138048;27;20396;-83
2022/07/17 11:08:41;;;;;;;2.93;1.13;;;;;;;;;;5142288;27;20035;-83
2022/07/17 11:11:08;;;;;;;2.47;1.20;;;;;;;;;;5141866;27;20060;-83
2022/07/17 11:13:33;;;;;;;2.58;1.08;;;;;;;;;;5124507;27;20046;-83
2022/07/17 11:15:59;;;;;;;3.83;1.20;;;;;;;;;;5124789;27;20439;-83
2022/07/17 11:18:25;;;;;;;2.55;0.90;;;;;;;;;;5124234;27;20041;-83
2022/07/17 11:20:56;;;;;;;2.63;0.90;;;;;;;;;;5124314;27;20043;-82
2022/07/17 11:23:24;;;;;;;4.18;1.02;;;;;;;;;;5125083;27;20058;-82
2022/07/17 11:26:04;;;;;;;3.70;0.88;;;;;;;;;;5124497;27;20042;-82
2022/07/17 11:28:39;;;;;;;2.80;0.95;;;;;;;;;;5123978;27;20043;-83
2022/07/17 11:31:26;;;;;;;3.03;1.05;;;;;;;;;;5124464;27;20034;-83
2022/07/17 11:34:00;;;;;;;2.55;1.17;;;;;;;;;;5124308;27;20042;-83
2022/07/17 11:36:36;;;;;;;2.00;1.00;;;;;;;;;;5142230;27;20027;-83
2022/07/17 11:39:19;;;;;;;5.95;1.25;;;;;;;;;;5140456;27;20035;-83
2022/07/17 11:41:50;;;;;;;3.38;1.60;;;;;;;;;;5119481;28;20039;-82
2022/07/17 11:44:18;;;;;;;5.95;1.20;;;;;;;;;;5103247;28;20039;-83
2022/07/17 11:46:46;;;;;;;4.30;1.17;;;;;;;;;;5120366;28;20031;-83
2022/07/17 11:49:25;;;;;;;4.50;1.60;;;;;;;;;;5102524;28;20043;-83
2022/07/17 11:51:52;;;;;;;2.88;1.17;;;;;;;;;;5103025;28;20036;-83
2022/07/17 11:54:17;;;;;;;4.28;1.00;;;;;;;;;;5118986;28;20037;-82
2022/07/17 11:56:53;;;;;;;3.78;1.15;;;;;;;;;;5101750;28;20277;-83
2022/07/17 11:59:30;;;;;;;4.90;1.15;;;;;;;;;;5119630;28;20070;-83
2022/07/17 12:01:55;;;;;;;3.55;1.30;;;;;;;;;;5101658;28;20035;-82
2022/07/17 12:04:21;;;;;;;3.65;1.00;;;;;;;;;;5119405;27;20035;-82
2022/07/17 12:07:00;;;;;;;2.17;1.13;;;;;;;;;;5101525;28;20039;-82
2022/07/17 12:09:28;;;;;;;3.33;1.40;;;;;;;;;;5101514;28;20038;-83
2022/07/17 12:11:54;;;;;;;2.70;0.90;;;;;;;;;;5101837;28;20031;-82
2022/07/17 12:14:20;;;;;;;3.00;0.98;;;;;;;;;;5101111;28;20119;-83
2022/07/17 12:16:46;;;;;;;4.07;1.20;;;;;;;;;;5118771;28;20027;-83
2022/07/17 12:19:15;;;;;;;3.10;0.75;;;;;;;;;;5118133;28;20023;-82
2022/07/17 12:22:01;;;;;;;2.60;0.88;;;;;;;;;;5101067;28;20473;-82
2022/07/17 12:24:33;;;;;;;3.38;1.15;;;;;;;;;;5101779;28;20032;-83
2022/07/17 12:27:01;;;;;;;1.85;1.00;;;;;;;;;;5100574;28;20546;-82
2022/07/17 12:29:28;;;;;;;1.42;0.88;;;;;;;;;;5101301;28;20039;-83
2022/07/17 12:32:01;;;;;;;3.05;0.93;;;;;;;;;;5102560;28;20050;-83
2022/07/17 12:34:27;;;;;;;5.45;1.02;;;;;;;;;;5107540;27;20035;-83
2022/07/17 12:36:52;;;;;;;3.35;1.00;;;;;;;;;;5161105;27;20031;-83
2022/07/17 12:39:18;;;;;;;2.20;0.93;;;;;;;;;;5161917;27;20083;-83
2022/07/17 12:41:44;;;;;;;2.33;0.90;;;;;;;;;;5142690;27;20254;-83
2022/07/17 12:44:10;;;;;;;1.63;0.95;;;;;;;;;;5160000;27;20042;-83
2022/07/17 12:46:36;;;;;;;2.47;0.82;;;;;;;;;;5142543;27;20035;-83
2022/07/17 12:49:01;;;;;;;2.58;0.88;;;;;;;;;;5142348;27;20051;-83
2022/07/17 12:51:27;;;;;;;1.88;1.00;;;;;;;;;;5143021;27;20411;-83
2022/07/17 12:53:53;;;;;;;3.85;0.90;;;;;;;;;;5143576;27;20026;-83
2022/07/17 12:56:19;;;;;;;2.10;0.88;;;;;;;;;;5160846;27;20057;-83
2022/07/17 12:58:44;;;;;;;2.45;0.93;;;;;;;;;;5143832;27;20555;-83
2022/07/17 13:01:10;;;;;;;4.20;0.82;;;;;;;;;;5142975;27;20031;-83
2022/07/17 13:03:36;;;;;;;4.30;1.00;;;;;;;;;;5143679;27;20034;-83
2022/07/17 13:06:02;;;;;;;2.67;0.90;;;;;;;;;;5125956;28;20041;-83
2022/07/17 13:08:29;;;;;;;1.85;0.98;;;;;;;;;;5122559;28;20050;-83
2022/07/17 13:10:55;;;;;;;3.25;1.10;;;;;;;;;;5122484;28;20046;-83
2022/07/17 13:13:20;;;;;;;2.92;0.90;;;;;;;;;;5140800;27;20396;-83
2022/07/17 13:15:46;;;;;;;2.13;1.00;;;;;;;;;;5125353;28;20036;-83
2022/07/17 13:18:11;;;;;;;2.55;0.88;;;;;;;;;;5118878;28;20032;-83
2022/07/17 13:20:37;;;;;;;0.98;0.80;;;;;;;;;;5118598;28;20062;-83
2022/07/17 13:23:03;;;;;;;2.33;0.88;;;;;;;;;;5103157;28;20520;-83
2022/07/17 13:25:28;;;;;;;5.30;0.85;;;;;;;;;;5120224;28;20039;-83
2022/07/17 13:27:54;;;;;;;3.15;1.17;;;;;;;;;;5103632;28;20039;-83
2022/07/17 13:30:19;;;;;;;3.05;1.23;;;;;;;;;;5119772;28;20047;-83
2022/07/17 13:32:45;;;;;;;2.58;1.30;;;;;;;;;;5102996;28;20042;-83
2022/07/17 13:35:11;;;;;;;1.38;0.85;;;;;;;;;;5136498;27;20023;-83
2022/07/17 13:37:37;;;;;;;1.15;0.85;;;;;;;;;;5122113;28;20026;-83
2022/07/17 13:40:05;;;;;;;1.55;0.75;;;;;;;;;;5138879;28;20055;-83
2022/07/17 13:42:30;;;;;;;4.55;0.93;;;;;;;;;;5122979;28;20049;-82
2022/07/17 13:44:56;;;;;;;2.67;1.10;;;;;;;;;;5139028;27;20031;-82
2022/07/17 13:47:21;;;;;;;1.27;0.80;;;;;;;;;;5121799;28;20433;-83
2022/07/17 13:49:47;;;;;;;3.13;0.85;;;;;;;;;;5138694;28;20480;-83
2022/07/17 13:52:12;;;;;;;1.52;0.88;;;;;;;;;;5121952;27;20412;-83
2022/07/17 13:54:38;;;;;;;1.65;0.70;;;;;;;;;;5121752;28;20027;-83
2022/07/17 13:57:03;;;;;;;3.08;1.20;;;;;;;;;;5138399;27;20507;-83
2022/07/17 13:59:29;;;;;;;2.30;1.00;;;;;;;;;;5122837;27;20396;-83
2022/07/17 14:01:55;;;;;;;1.85;0.90;;;;;;;;;;5124500;27;20031;-83
2022/07/17 14:04:20;;;;;;;3.17;1.00;;;;;;;;;;5124724;27;20039;-83
2022/07/17 14:06:46;;;;;;;2.17;0.90;;;;;;;;;;5125268;27;20035;-83
2022/07/17 14:09:11;;;;;;;2.15;1.15;;;;;;;;;;5124977;27;20027;-83
2022/07/17 14:11:37;;;;;;;1.58;1.10;;;;;;;;;;5141657;27;20031;-82
2022/07/17 14:14:04;;;;;;;2.60;1.23;;;;;;;;;;5124365;27;20039;-82
2022/07/17 14:16:29;;;;;;;2.40;1.05;;;;;;;;;;5124196;27;20089;-82
2022/07/17 14:18:57;;;;;;;1.27;0.75;;;;;;;;;;5126185;27;20473;-83
2022/07/17 14:21:28;;;;;;;3.97;1.00;;;;;;;;;;5125340;27;20098;-82
2022/07/17 14:23:54;;;;;;;1.23;0.80;;;;;;;;;;5125087;27;20556;-83
2022/07/17 14:26:20;;;;;;;3.60;1.05;;;;;;;;;;5141424;27;20114;-82
2022/07/17 14:28:45;;;;;;;2.53;1.00;;;;;;;;;;5123392;27;20031;-83
2022/07/17 14:31:11;;;;;;;2.85;0.80;;;;;;;;;;5124681;27;20042;-83
2022/07/17 14:33:37;;;;;;;2.35;0.82;;;;;;;;;;5141927;27;20554;-83
2022/07/17 14:36:03;;;;;;;2.05;0.93;;;;;;;;;;5122983;27;20106;-82
2022/07/17 14:38:29;;;;;;;3.67;1.00;;;;;;;;;;5124688;27;20066;-83
2022/07/17 14:40:55;;;;;;;0.73;0.65;;;;;;;;;;5122539;27;20055;-83
2022/07/17 14:43:20;;;;;;;1.95;0.98;;;;;;;;;;5141089;27;20034;-82
2022/07/17 14:45:46;;;;;;;2.20;0.85;;;;;;;;;;5124419;27;20117;-83